Time;durP1;ratioP1;P1;durP2;ratioP2;P2;SDS_P1;SDS_P2;PMS_P1;PMS_P2;Temp;Humidity;BMP_temperature;BMP_pressure;BME280_temperature;BME280_humidity;BME280_pressure;Samples;Min_cycle;Max_cycle;Signal;HPM_P1;HPM_P2
2023/07/04 00:01:29;;;;;;;7.03;4.27;;;12.70;99.90;;;;;;5094696;28;20768;-75
2023/07/04 00:03:56;;;;;;;9.20;4.57;;;12.80;99.90;;;;;;5095537;28;20438;-75
2023/07/04 00:06:27;;;;;;;4.13;3.60;;;12.70;99.90;;;;;;5093319;28;20239;-72
2023/07/04 00:09:19;;;;;;;4.87;3.30;;;12.70;99.90;;;;;;5092277;28;20958;-75
2023/07/04 00:12:13;;;;;;;;;;;;;;;;;;;;;
2023/07/04 00:14:48;;;;;;;3.77;2.90;;;12.60;99.90;;;;;;5095216;28;20796;-75
2023/07/04 00:17:19;;;;;;;2.97;2.57;;;12.60;99.90;;;;;;5095284;28;20916;-73
2023/07/04 00:19:47;;;;;;;7.80;3.20;;;12.60;99.90;;;;;;5094074;28;20422;-71
2023/07/04 00:22:13;;;;;;;7.70;2.93;;;12.60;99.90;;;;;;5089630;28;20406;-77
2023/07/04 00:24:40;;;;;;;2.60;2.40;;;12.50;99.90;;;;;;5076692;28;20464;-70
2023/07/04 00:27:06;;;;;;;5.40;4.33;;;12.50;99.90;;;;;;5084642;28;20435;-76
2023/07/04 00:29:46;;;;;;;5.83;3.03;;;12.50;99.90;;;;;;5075175;28;20455;-76
2023/07/04 00:32:14;;;;;;;6.03;2.73;;;12.50;99.90;;;;;;5073933;28;20456;-74
2023/07/04 00:34:45;;;;;;;8.10;3.30;;;12.40;99.90;;;;;;5074923;28;20772;-69
2023/07/04 00:37:29;;;;;;;5.50;3.20;;;12.40;99.90;;;;;;5075088;28;20406;-74
2023/07/04 00:43:02;;;;;;;4.47;2.83;;;12.40;99.90;;;;;;5074969;28;20390;-77
2023/07/04 00:45:31;;;;;;;3.73;2.87;;;12.50;99.90;;;;;;5075009;28;20439;-77
2023/07/04 00:48:05;;;;;;;7.20;3.00;;;12.50;99.90;;;;;;5078029;28;20402;-75
2023/07/04 00:50:38;;;;;;;5.53;3.43;;;12.50;99.90;;;;;;5093960;28;20453;-70
2023/07/04 00:53:14;;;;;;;3.77;3.40;;;12.50;99.90;;;;;;5084914;28;20459;-73
2023/07/04 00:55:44;;;;;;;6.33;3.13;;;12.50;99.90;;;;;;5074361;28;20767;-77
2023/07/04 00:58:11;;;;;;;3.60;2.63;;;12.50;99.90;;;;;;5074145;28;20403;-70
2023/07/04 01:00:51;;;;;;;3.27;2.43;;;12.50;99.90;;;;;;5073627;28;20380;-69
2023/07/04 01:03:20;;;;;;;2.70;2.50;;;12.50;99.90;;;;;;5074315;28;20395;-69
2023/07/04 01:06:20;;;;;;;6.13;3.07;;;12.50;99.90;;;;;;5074360;28;20420;-74
2023/07/04 01:12:03;;;;;;;4.43;2.53;;;12.40;99.90;;;;;;5041772;28;20919;-69
2023/07/04 01:17:26;;;;;;;3.50;2.40;;;12.30;99.90;;;;;;5031597;28;20415;-69
2023/07/04 01:19:53;;;;;;;5.93;2.40;;;12.40;99.90;;;;;;5073964;28;20411;-69
2023/07/04 01:22:56;;;;;;;2.60;2.40;;;12.30;99.90;;;;;;5074205;28;20422;-70
2023/07/04 01:26:01;;;;;;;2.40;2.20;;;12.40;99.90;;;;;;5074247;28;20698;-75
2023/07/04 01:28:29;;;;;;;7.97;3.07;;;12.30;99.90;;;;;;5062712;28;20398;-75
2023/07/04 01:30:57;;;;;;;4.03;2.47;;;12.20;99.90;;;;;;5072945;28;20408;-69
2023/07/04 01:33:24;;;;;;;5.27;2.93;;;12.20;99.90;;;;;;5073917;28;20467;-75
2023/07/04 01:35:50;;;;;;;3.40;2.30;;;12.20;99.90;;;;;;5073246;28;20431;-68
2023/07/04 01:38:16;;;;;;;5.47;2.80;;;12.20;99.90;;;;;;5074619;28;20861;-70
2023/07/04 01:40:42;;;;;;;7.53;2.90;;;12.20;99.90;;;;;;5072736;28;20403;-68
2023/07/04 01:43:10;;;;;;;3.90;2.70;;;12.20;99.90;;;;;;5073512;28;20174;-70
2023/07/04 01:45:49;;;;;;;3.40;3.10;;;12.10;99.90;;;;;;5073629;28;20170;-75
2023/07/04 01:48:15;;;;;;;7.07;2.50;;;12.20;99.90;;;;;;5055005;28;20410;-69
2023/07/04 01:50:41;;;;;;;2.73;2.40;;;12.20;99.90;;;;;;5072243;28;20440;-69
2023/07/04 01:53:07;;;;;;;4.07;3.07;;;12.30;99.90;;;;;;5071886;28;20961;-76
2023/07/04 01:55:42;;;;;;;3.87;2.40;;;12.30;99.90;;;;;;5073460;28;20185;-71
2023/07/04 01:58:08;;;;;;;5.23;2.67;;;12.20;99.90;;;;;;5073634;28;20174;-75
2023/07/04 02:00:33;;;;;;;2.80;2.20;;;12.30;99.90;;;;;;5072374;28;20443;-74
2023/07/04 02:02:59;;;;;;;4.40;2.80;;;12.30;99.90;;;;;;5073130;28;20781;-69
2023/07/04 02:05:26;;;;;;;3.87;3.30;;;12.30;99.90;;;;;;5076958;28;20181;-69
2023/07/04 02:07:52;;;;;;;4.00;2.97;;;12.30;99.90;;;;;;5088621;28;20930;-78
2023/07/04 02:10:18;;;;;;;5.40;3.00;;;12.20;1.00;;;;;;5072270;28;20412;-73
2023/07/04 02:13:02;;;;;;;6.37;3.60;;;12.20;1.00;;;;;;5072618;28;20438;-77
2023/07/04 02:15:28;;;;;;;3.83;3.43;;;12.20;1.00;;;;;;5055519;28;20178;-78
2023/07/04 02:18:13;;;;;;;8.10;3.73;;;12.20;1.00;;;;;;5080864;28;20903;-68
2023/07/04 02:20:55;;;;;;;4.63;3.10;;;12.20;1.00;;;;;;5092344;28;20376;-68
2023/07/04 02:23:21;;;;;;;10.97;3.70;;;12.20;1.00;;;;;;5086119;28;20513;-74
2023/07/04 02:25:48;;;;;;;4.53;3.40;;;12.20;1.00;;;;;;5073061;28;20409;-69
2023/07/04 02:28:15;;;;;;;4.70;4.30;;;12.20;1.00;;;;;;5073187;28;20474;-77
2023/07/04 02:30:42;;;;;;;4.73;2.70;;;12.20;1.00;;;;;;5071134;28;20442;-70
2023/07/04 02:33:08;;;;;;;3.73;3.33;;;12.20;1.00;;;;;;5086387;28;20517;-69
2023/07/04 02:35:34;;;;;;;6.90;3.93;;;12.20;1.00;;;;;;5093163;28;20457;-70
2023/07/04 02:37:59;;;;;;;4.43;2.50;;;12.20;1.00;;;;;;5090760;28;20189;-69
2023/07/04 02:40:26;;;;;;;7.33;3.33;;;12.20;1.00;;;;;;5073022;28;20399;-70
2023/07/04 02:42:51;;;;;;;2.73;2.53;;;12.20;1.00;;;;;;5072952;28;20174;-71
2023/07/04 02:45:17;;;;;;;6.00;3.20;;;12.10;1.00;;;;;;5085091;28;20413;-70
2023/07/04 02:47:43;;;;;;;7.97;3.07;;;12.20;1.00;;;;;;5090810;28;20932;-77
2023/07/04 02:50:09;;;;;;;3.93;3.50;;;12.10;1.00;;;;;;5073779;28;20239;-69
2023/07/04 02:52:35;;;;;;;4.07;3.43;;;12.10;1.00;;;;;;5092871;28;20204;-69
2023/07/04 02:55:01;;;;;;;5.30;3.30;;;12.20;1.00;;;;;;5074414;28;20438;-78
2023/07/04 02:57:27;;;;;;;5.63;3.10;;;12.10;1.00;;;;;;5054763;28;20177;-74
2023/07/04 02:59:53;;;;;;;3.17;2.70;;;12.10;1.00;;;;;;5054596;28;20405;-79
2023/07/04 03:02:19;;;;;;;4.40;2.70;;;12.10;1.00;;;;;;5072039;28;20181;-78
2023/07/04 03:04:51;;;;;;;5.13;3.47;;;12.00;1.00;;;;;;5072210;28;20395;-69
2023/07/04 03:07:17;;;;;;;5.33;3.60;;;12.00;1.00;;;;;;5055635;28;20803;-76
2023/07/04 03:09:46;;;;;;;4.50;3.20;;;12.10;1.00;;;;;;5073795;28;20528;-77
2023/07/04 03:12:12;;;;;;;6.17;3.20;;;12.10;1.00;;;;;;5073937;28;20450;-69
2023/07/04 03:14:38;;;;;;;7.43;3.67;;;12.10;1.00;;;;;;5092749;28;20454;-69
2023/07/04 03:17:04;;;;;;;7.80;3.43;;;12.10;1.00;;;;;;5092728;28;20408;-76
2023/07/04 03:19:30;;;;;;;9.43;3.87;;;12.10;1.00;;;;;;5074950;28;20184;-77
2023/07/04 03:21:56;;;;;;;5.03;2.87;;;12.10;1.00;;;;;;5091418;28;20427;-68
2023/07/04 03:24:22;;;;;;;6.03;3.87;;;12.00;1.00;;;;;;5060932;28;20434;-73
2023/07/04 03:26:50;;;;;;;6.23;3.63;;;12.10;1.00;;;;;;5072479;28;20412;-78
2023/07/04 03:29:16;;;;;;;7.40;3.77;;;12.00;1.00;;;;;;5072433;28;20463;-70
2023/07/04 03:31:42;;;;;;;7.93;4.40;;;12.10;1.00;;;;;;5071427;28;21190;-79
2023/07/04 03:34:08;;;;;;;3.50;3.20;;;12.10;1.00;;;;;;5072483;28;20643;-69
2023/07/04 03:36:33;;;;;;;4.17;3.60;;;12.10;1.00;;;;;;5072359;28;20631;-69
2023/07/04 03:38:59;;;;;;;6.67;3.87;;;12.20;1.00;;;;;;5057501;28;20431;-76
2023/07/04 03:41:25;;;;;;;9.90;3.70;;;12.20;1.00;;;;;;5071179;28;20228;-78
2023/07/04 03:43:51;;;;;;;13.90;4.33;;;12.20;1.00;;;;;;5073405;28;20416;-70
2023/07/04 03:46:17;;;;;;;9.77;4.00;;;12.10;1.00;;;;;;5092233;28;20178;-70
2023/07/04 03:48:43;;;;;;;8.60;4.90;;;12.20;1.00;;;;;;5092593;28;20366;-69
2023/07/04 03:51:09;;;;;;;8.83;3.60;;;12.20;1.00;;;;;;5073413;28;20412;-69
2023/07/04 03:53:37;;;;;;;4.37;3.90;;;12.20;1.00;;;;;;5077870;28;20206;-77
2023/07/04 03:56:06;;;;;;;9.53;3.40;;;12.30;1.00;;;;;;5072168;28;20178;-74
2023/07/04 03:58:32;;;;;;;12.53;3.70;;;12.40;1.00;;;;;;5072815;28;20466;-69
2023/07/04 04:00:58;;;;;;;3.93;3.20;;;12.40;3.40;;;;;;5091363;28;20374;-69
2023/07/04 04:03:24;;;;;;;3.87;2.73;;;12.40;10.90;;;;;;5095508;28;20432;-76
2023/07/04 04:05:51;;;;;;;8.80;4.47;;;12.40;17.10;;;;;;5075864;28;20189;-79
2023/07/04 04:08:20;;;;;;;4.07;3.07;;;12.40;21.40;;;;;;5078807;28;20402;-70
2023/07/04 04:10:46;;;;;;;6.80;3.07;;;12.40;22.20;;;;;;5077882;28;20390;-76
2023/07/04 04:13:12;;;;;;;7.20;3.30;;;12.40;27.70;;;;;;5077410;28;20829;-69
2023/07/04 04:15:38;;;;;;;5.90;2.93;;;12.40;34.50;;;;;;5077120;28;20197;-76
2023/07/04 04:18:03;;;;;;;3.17;2.87;;;12.40;34.50;;;;;;5077652;28;20451;-71
2023/07/04 04:20:29;;;;;;;5.50;2.87;;;12.50;45.30;;;;;;5093894;28;20169;-77
2023/07/04 04:22:55;;;;;;;3.37;3.07;;;12.60;52.30;;;;;;5077578;28;20189;-74
2023/07/04 04:25:37;;;;;;;8.13;3.10;;;12.60;55.00;;;;;;5063370;28;20418;-70
2023/07/04 04:28:08;;;;;;;6.30;3.30;;;12.60;61.60;;;;;;5095465;28;20407;-70
2023/07/04 04:30:44;;;;;;;4.77;3.40;;;12.70;62.90;;;;;;5076420;28;20415;-79
2023/07/04 04:33:12;;;;;;;8.43;3.63;;;12.70;65.50;;;;;;5095291;28;20422;-69
2023/07/04 04:35:52;;;;;;;3.20;2.90;;;12.70;69.00;;;;;;5060007;28;20431;-71
2023/07/04 04:38:18;;;;;;;4.20;3.80;;;12.70;65.60;;;;;;5075723;28;20434;-79
2023/07/04 04:40:44;;;;;;;5.07;3.70;;;12.80;67.20;;;;;;5074438;28;20371;-69
2023/07/04 04:43:10;;;;;;;4.50;3.30;;;12.80;69.10;;;;;;5074935;28;20483;-78
2023/07/04 04:45:38;;;;;;;8.47;3.33;;;12.80;69.40;;;;;;5091066;28;20902;-76
2023/07/04 04:48:06;;;;;;;11.57;4.33;;;12.80;66.10;;;;;;5095145;28;20922;-71
2023/07/04 04:50:32;;;;;;;6.73;3.30;;;12.90;65.10;;;;;;5094127;28;20407;-79
2023/07/04 04:53:01;;;;;;;6.73;4.30;;;12.90;64.60;;;;;;5078703;28;20865;-77
2023/07/04 04:55:28;;;;;;;5.70;3.13;;;12.90;53.60;;;;;;5074896;28;20405;-78
2023/07/04 04:57:54;;;;;;;4.70;3.33;;;12.90;48.10;;;;;;5074724;28;20458;-70
2023/07/04 05:00:20;;;;;;;10.97;6.43;;;13.00;45.80;;;;;;5089493;28;20423;-75
2023/07/04 05:02:46;;;;;;;7.30;3.80;;;12.90;35.00;;;;;;5068106;28;20186;-78
2023/07/04 05:05:13;;;;;;;14.47;3.17;;;12.90;28.90;;;;;;5074494;28;20418;-78
2023/07/04 05:07:39;;;;;;;4.13;3.80;;;13.00;35.10;;;;;;5075084;28;20182;-78
2023/07/04 05:10:15;;;;;;;6.77;3.73;;;13.10;29.60;;;;;;5074049;28;20419;-75
2023/07/04 05:15:29;;;;;;;9.23;3.33;;;13.10;12.20;;;;;;5074469;28;20398;-73
2023/07/04 05:17:55;;;;;;;5.83;3.83;;;13.20;10.10;;;;;;5074300;28;20375;-73
2023/07/04 05:20:24;;;;;;;6.50;3.50;;;13.30;1.20;;;;;;5073350;28;20404;-78
2023/07/04 05:22:56;;;;;;;7.77;4.33;;;13.40;1.00;;;;;;5075869;28;20442;-69
2023/07/04 05:25:23;;;;;;;7.53;3.50;;;13.40;1.00;;;;;;5074380;28;20412;-70
2023/07/04 05:27:51;;;;;;;9.60;3.50;;;13.50;1.00;;;;;;5074022;28;20419;-79
2023/07/04 05:30:19;;;;;;;10.77;3.90;;;13.40;1.00;;;;;;5054581;28;20925;-78
2023/07/04 05:32:45;;;;;;;5.03;2.87;;;13.50;1.00;;;;;;5074018;28;20463;-78
2023/07/04 05:35:11;;;;;;;3.70;2.60;;;13.60;1.00;;;;;;5055977;28;20428;-78
2023/07/04 05:37:37;;;;;;;4.37;2.60;;;13.60;1.00;;;;;;5075496;28;20193;-69
2023/07/04 05:40:08;;;;;;;7.37;2.90;;;13.60;1.00;;;;;;5055754;28;20987;-72
2023/07/04 05:42:57;;;;;;;6.93;2.80;;;13.60;1.00;;;;;;5073638;28;20177;-68
2023/07/04 05:45:26;;;;;;;3.97;3.47;;;13.50;1.00;;;;;;5061330;28;20403;-68
2023/07/04 05:47:52;;;;;;;11.57;3.70;;;13.60;1.00;;;;;;5055662;28;20759;-71
2023/07/04 05:50:18;;;;;;;6.13;4.27;;;13.70;1.00;;;;;;5075353;28;20424;-70
2023/07/04 05:52:44;;;;;;;10.53;2.57;;;13.70;1.00;;;;;;5080003;28;20666;-68
2023/07/04 05:55:10;;;;;;;9.73;2.97;;;13.70;1.00;;;;;;5078049;28;20467;-76
2023/07/04 05:57:36;;;;;;;10.10;3.80;;;13.70;1.00;;;;;;5087381;28;20832;-73
2023/07/04 06:00:04;;;;;;;6.50;2.93;;;13.70;1.00;;;;;;5073028;28;20582;-73
2023/07/04 06:02:31;;;;;;;3.90;3.10;;;13.70;1.00;;;;;;5073342;28;20380;-69
2023/07/04 06:04:57;;;;;;;5.13;3.50;;;13.60;1.00;;;;;;5073364;28;20444;-73
2023/07/04 06:07:43;;;;;;;4.37;2.93;;;13.60;1.00;;;;;;5074728;28;20415;-71
2023/07/04 06:10:12;;;;;;;7.77;2.70;;;13.70;1.00;;;;;;5076362;28;20515;-72
2023/07/04 06:12:40;;;;;;;4.10;2.70;;;13.70;1.00;;;;;;5055329;28;20423;-72
2023/07/04 06:15:07;;;;;;;5.47;4.97;;;13.80;1.00;;;;;;5073273;28;20779;-75
2023/07/04 06:17:35;;;;;;;5.23;3.70;;;13.80;1.00;;;;;;5073267;28;20434;-75
2023/07/04 06:20:01;;;;;;;5.67;2.83;;;13.90;1.00;;;;;;5073024;28;20404;-76
2023/07/04 06:22:27;;;;;;;7.07;3.40;;;14.00;1.00;;;;;;5079473;28;20443;-71
2023/07/04 06:24:53;;;;;;;5.03;2.80;;;14.10;1.00;;;;;;5087196;28;20528;-71
2023/07/04 06:27:19;;;;;;;4.50;3.07;;;14.00;1.00;;;;;;5093395;28;20479;-78
2023/07/04 06:29:53;;;;;;;15.43;3.43;;;14.00;1.00;;;;;;5093256;28;20385;-77
2023/07/04 06:32:19;;;;;;;9.60;3.20;;;14.10;1.00;;;;;;5068834;28;20567;-72
2023/07/04 06:34:45;;;;;;;2.83;2.60;;;14.20;1.00;;;;;;5068414;28;20441;-70
2023/07/04 06:37:17;;;;;;;7.37;3.30;;;14.40;1.00;;;;;;5058445;28;20412;-72
2023/07/04 06:40:08;;;;;;;3.53;2.50;;;14.50;1.00;;;;;;5072960;28;20166;-77
2023/07/04 06:42:46;;;;;;;9.03;3.17;;;14.60;1.00;;;;;;5081694;28;20776;-75
2023/07/04 06:48:56;;;;;;;5.57;2.83;;;14.70;99.90;;;;;;5093037;28;20453;-72
2023/07/04 06:51:29;;;;;;;3.73;2.30;;;14.70;99.90;;;;;;5078009;28;20538;-77
2023/07/04 06:53:55;;;;;;;2.97;2.07;;;14.70;99.90;;;;;;5072218;28;20475;-78
2023/07/04 06:56:23;;;;;;;6.07;2.53;;;14.60;99.90;;;;;;5063558;28;20431;-70
2023/07/04 06:58:54;;;;;;;4.53;2.47;;;14.50;99.90;;;;;;5075490;28;20767;-70
2023/07/04 07:01:57;;;;;;;6.27;2.43;;;14.40;99.90;;;;;;5071616;28;20409;-73
2023/07/04 07:04:23;;;;;;;6.63;2.20;;;14.30;99.90;;;;;;5054090;28;20444;-71
2023/07/04 07:06:49;;;;;;;7.63;2.80;;;14.20;99.90;;;;;;5074745;28;20500;-76
2023/07/04 07:09:16;;;;;;;3.73;2.90;;;14.20;99.90;;;;;;5054786;28;20412;-74
2023/07/04 07:11:47;;;;;;;6.10;2.67;;;14.20;99.90;;;;;;5053101;28;20420;-78
2023/07/04 07:14:13;;;;;;;4.50;2.70;;;14.30;99.90;;;;;;5068646;28;20439;-73
2023/07/04 07:16:39;;;;;;;7.03;2.47;;;14.50;99.90;;;;;;5092475;28;20493;-79
2023/07/04 07:19:06;;;;;;;6.40;3.00;;;14.50;99.90;;;;;;5076815;28;20511;-78
2023/07/04 07:21:32;;;;;;;8.23;3.80;;;14.60;99.90;;;;;;5088940;28;20389;-77
2023/07/04 07:24:01;;;;;;;13.77;3.20;;;14.80;99.90;;;;;;5093644;28;20833;-75
2023/07/04 07:26:28;;;;;;;3.97;2.07;;;14.90;99.90;;;;;;5091321;28;20276;-76
2023/07/04 07:28:57;;;;;;;4.63;2.97;;;14.90;99.90;;;;;;5091356;28;20495;-69
2023/07/04 07:31:27;;;;;;;9.23;2.70;;;14.70;99.90;;;;;;5074200;28;20451;-70
2023/07/04 07:33:53;;;;;;;3.60;2.57;;;14.60;99.90;;;;;;5092395;28;20463;-78
2023/07/04 07:36:30;;;;;;;5.40;2.50;;;14.50;99.90;;;;;;5058974;28;20432;-71
2023/07/04 07:38:57;;;;;;;5.00;2.60;;;14.30;99.90;;;;;;5057887;28;20416;-72
2023/07/04 07:44:29;;;;;;;5.73;2.40;;;14.30;99.90;;;;;;5096309;28;20523;-78
2023/07/04 07:46:55;;;;;;;6.07;2.67;;;14.30;99.90;;;;;;5072688;28;20808;-70
2023/07/04 07:49:24;;;;;;;3.00;2.80;;;14.30;99.90;;;;;;5072737;28;20522;-71
2023/07/04 07:51:53;;;;;;;7.83;3.27;;;14.50;99.90;;;;;;5074926;28;20189;-70
2023/07/04 07:54:19;;;;;;;9.23;3.40;;;14.80;99.90;;;;;;5058066;28;20452;-80
2023/07/04 07:56:56;;;;;;;;;;;;;;;;;;;;;
2023/07/04 07:59:45;;;;;;;9.90;3.33;;;15.10;99.90;;;;;;5094252;28;20757;-80
2023/07/04 08:02:29;;;;;;;7.30;3.63;;;15.10;99.90;;;;;;5095181;28;20407;-79
2023/07/04 08:04:55;;;;;;;10.63;3.37;;;15.20;99.90;;;;;;5076131;28;20456;-79
2023/07/04 08:07:21;;;;;;;8.33;2.87;;;15.40;99.90;;;;;;5057754;28;20411;-79
2023/07/04 08:09:58;;;;;;;6.97;3.37;;;15.50;99.90;;;;;;5075430;28;20487;-76
2023/07/04 08:12:25;;;;;;;6.00;3.30;;;15.60;90.80;;;;;;5074170;28;20558;-77
2023/07/04 08:14:51;;;;;;;4.20;2.60;;;15.70;3.50;;;;;;5095649;28;20428;-76
2023/07/04 08:17:23;;;;;;;3.60;2.40;;;15.80;1.00;;;;;;5095185;28;20396;-72
2023/07/04 08:19:49;;;;;;;8.23;2.60;;;16.00;1.00;;;;;;5088462;28;20432;-79
2023/07/04 08:22:32;;;;;;;13.23;2.73;;;16.20;1.00;;;;;;5074627;28;20436;-73
2023/07/04 08:24:59;;;;;;;7.90;2.90;;;16.30;1.00;;;;;;5075185;28;20424;-71
2023/07/04 08:27:38;;;;;;;4.47;2.60;;;16.30;1.00;;;;;;5080398;28;20432;-73
2023/07/04 08:30:10;;;;;;;7.30;2.40;;;16.30;1.00;;;;;;5093329;28;20431;-77
2023/07/04 08:32:36;;;;;;;6.43;2.60;;;16.40;1.00;;;;;;5095120;28;20444;-78
2023/07/04 08:35:03;;;;;;;6.00;3.07;;;16.50;1.00;;;;;;5088125;28;20475;-78
2023/07/04 08:43:44;;;;;;;11.43;2.93;;;16.70;1.00;;;;;;5073653;28;20542;-77
2023/07/04 08:46:12;;;;;;;6.10;2.10;;;16.50;1.00;;;;;;5109774;28;20886;-72
2023/07/04 08:52:46;;;;;;;6.33;2.90;;;16.60;1.00;;;;;;5073303;28;20439;-72
2023/07/04 08:55:14;;;;;;;5.10;2.30;;;16.60;1.00;;;;;;5036312;28;20463;-78
2023/07/04 08:57:47;;;;;;;5.77;2.87;;;16.60;1.00;;;;;;5074579;28;20439;-73
2023/07/04 09:00:29;;;;;;;7.07;3.13;;;16.50;1.00;;;;;;5073696;28;20435;-77
2023/07/04 09:03:37;;;;;;;5.80;3.10;;;16.60;1.00;;;;;;5056896;28;20412;-77
2023/07/04 09:06:38;;;;;;;6.60;3.10;;;16.60;1.00;;;;;;5077494;28;21046;-71
2023/07/04 09:09:44;;;;;;;3.47;1.70;;;16.40;1.00;;;;;;5059498;28;20482;-71
2023/07/04 09:12:22;;;;;;;9.53;3.23;;;16.30;1.00;;;;;;5063281;28;20458;-71
2023/07/04 09:18:52;;;;;;;6.30;1.90;;;14.50;1.00;;;;;;4973267;28;20488;-80
2023/07/04 09:21:25;;;;;;;3.00;2.10;;;13.80;1.00;;;;;;5008819;28;20550;-75
2023/07/04 09:24:22;;;;;;;1.80;1.70;;;13.50;1.00;;;;;;5077048;28;20452;-78
2023/07/04 09:26:53;;;;;;;3.20;1.70;;;13.40;1.00;;;;;;5066551;28;20460;-75
2023/07/04 09:30:22;;;;;;;6.40;1.80;;;13.30;1.00;;;;;;5084671;28;20398;-77
2023/07/04 09:32:48;;;;;;;2.20;1.70;;;13.50;1.00;;;;;;5066431;28;20786;-75
2023/07/04 09:35:16;;;;;;;7.90;2.03;;;13.50;1.00;;;;;;5074205;28;20912;-76
2023/07/04 09:38:54;;;;;;;3.03;2.07;;;13.40;1.00;;;;;;5074061;28;20409;-73
2023/07/04 09:41:27;;;;;;;2.97;2.67;;;13.60;1.00;;;;;;4999712;28;20434;-75
2023/07/04 09:44:11;;;;;;;4.43;2.30;;;14.00;1.00;;;;;;5011827;28;20504;-78
2023/07/04 09:46:38;;;;;;;5.20;2.23;;;14.20;1.00;;;;;;5057951;28;20420;-75
2023/07/04 09:49:30;;;;;;;4.87;2.40;;;14.30;1.00;;;;;;5073841;28;20404;-79
2023/07/04 09:52:26;;;;;;;;;;;;;;;;;;;;;
2023/07/04 09:55:25;;;;;;;2.70;2.03;;;14.40;1.00;;;;;;5083252;28;20485;-76
2023/07/04 10:01:49;;;;;;;4.50;2.40;;;14.40;1.00;;;;;;4989729;28;20410;-75
2023/07/04 10:04:41;;;;;;;5.20;1.90;;;14.60;1.00;;;;;;5008796;28;20524;-77
2023/07/04 10:07:18;;;;;;;2.43;2.23;;;14.80;1.00;;;;;;5086856;28;20474;-76
2023/07/04 10:13:22;;;;;;;1.93;1.60;;;15.00;1.00;;;;;;4972235;28;20515;-76
2023/07/04 10:16:15;;;;;;;3.00;2.00;;;15.20;1.00;;;;;;4972523;28;20413;-75
2023/07/04 10:25:50;;;;;;;5.90;1.47;;;15.50;1.00;;;;;;5031595;28;20434;-74
2023/07/04 10:28:19;;;;;;;1.30;1.20;;;15.80;1.00;;;;;;4972392;28;20449;-77
2023/07/04 10:30:49;;;;;;;1.47;1.37;;;16.30;1.00;;;;;;4984568;28;20522;-79
2023/07/04 10:33:21;;;;;;;1.80;1.40;;;16.80;1.00;;;;;;5033307;28;20512;-79
2023/07/04 10:35:54;;;;;;;1.83;1.57;;;16.80;1.00;;;;;;5074342;28;20438;-74
2023/07/04 10:52:31;;;;;;;3.47;1.73;;;18.70;1.00;;;;;;5083209;28;20458;-70
2023/07/04 10:55:01;;;;;;;1.53;1.00;;;19.60;1.00;;;;;;5068621;28;20475;-72
2023/07/04 11:08:20;;;;;;;2.00;1.33;;;18.90;99.90;;;;;;5074695;28;20447;-71
2023/07/04 11:11:14;;;;;;;2.80;1.87;;;19.30;99.90;;;;;;5054930;28;20439;-77
2023/07/04 11:13:48;;;;;;;2.10;1.57;;;19.70;99.90;;;;;;5049495;28;21026;-77
2023/07/04 11:16:15;;;;;;;2.00;1.50;;;20.10;99.90;;;;;;5076719;28;20955;-77
2023/07/04 11:18:59;;;;;;;2.30;1.40;;;20.40;99.90;;;;;;5076907;28;20412;-74
2023/07/04 11:21:25;;;;;;;2.50;1.83;;;20.90;99.90;;;;;;5060096;28;20437;-77
2023/07/04 11:27:51;;;;;;;1.60;1.23;;;21.10;99.90;;;;;;5086403;28;20231;-75
2023/07/04 11:30:34;;;;;;;4.50;1.47;;;21.40;99.90;;;;;;5075373;28;20416;-70
2023/07/04 11:33:00;;;;;;;5.77;1.10;;;21.40;99.90;;;;;;5076316;28;21006;-78
2023/07/04 11:36:21;;;;;;;3.37;1.70;;;21.60;99.90;;;;;;5077745;28;20432;-77
2023/07/04 11:38:52;;;;;;;2.00;1.50;;;21.30;99.90;;;;;;5076460;28;20389;-70
2023/07/04 11:41:41;;;;;;;2.03;1.07;;;21.40;99.90;;;;;;5086308;28;20414;-77
2023/07/04 11:44:23;;;;;;;3.67;1.67;;;21.00;99.90;;;;;;5084078;28;20470;-73
2023/07/04 11:50:10;;;;;;;4.50;1.73;;;19.50;99.90;;;;;;5077035;28;20437;-72
2023/07/04 11:56:17;;;;;;;3.60;1.37;;;18.60;99.90;;;;;;5075739;28;20532;-70
2023/07/04 11:58:45;;;;;;;3.90;1.70;;;18.40;99.90;;;;;;5058156;28;20836;-72
2023/07/04 12:01:13;;;;;;;7.77;2.30;;;18.30;99.90;;;;;;5074841;28;20409;-73
2023/07/04 12:04:01;;;;;;;3.77;1.30;;;18.40;99.90;;;;;;5081765;28;20458;-76
2023/07/04 12:06:57;;;;;;;1.33;1.10;;;19.10;99.90;;;;;;5077147;28;20467;-75
2023/07/04 12:09:29;;;;;;;5.70;1.40;;;20.40;99.90;;;;;;5075692;28;20757;-76
2023/07/04 12:12:05;;;;;;;2.20;1.20;;;20.80;99.90;;;;;;5059204;28;20436;-76
2023/07/04 12:15:17;;;;;;;2.13;1.40;;;21.70;99.90;;;;;;5095535;28;20423;-70
2023/07/04 12:21:22;;;;;;;5.00;1.57;;;22.50;99.90;;;;;;5030428;28;20481;-69
2023/07/04 12:23:49;;;;;;;4.00;1.00;;;21.70;99.90;;;;;;5033693;28;20441;-76
2023/07/04 12:26:57;;;;;;;3.47;1.40;;;20.90;99.90;;;;;;5053242;28;20415;-72
2023/07/04 12:29:24;;;;;;;6.93;1.40;;;19.90;99.90;;;;;;5056563;28;20503;-75
2023/07/04 12:32:21;;;;;;;4.73;1.50;;;19.40;99.90;;;;;;5085827;28;20416;-77
2023/07/04 12:34:47;;;;;;;4.63;1.77;;;18.90;99.90;;;;;;5052578;28;20443;-69
2023/07/04 12:37:27;;;;;;;5.50;1.50;;;18.70;99.90;;;;;;5060089;28;20474;-71
2023/07/04 12:39:53;;;;;;;2.13;1.43;;;19.30;99.90;;;;;;5075000;28;20465;-74
2023/07/04 12:42:28;;;;;;;2.53;1.37;;;20.00;99.90;;;;;;5093567;28;20416;-72
2023/07/04 12:45:15;;;;;;;2.80;1.20;;;20.50;99.90;;;;;;5082905;28;20453;-72
2023/07/04 12:47:44;;;;;;;6.17;1.70;;;20.10;99.90;;;;;;5075593;28;20827;-73
2023/07/04 12:50:34;;;;;;;4.47;1.40;;;19.80;99.90;;;;;;5093026;28;20513;-75
2023/07/04 12:53:01;;;;;;;4.83;1.30;;;19.50;99.90;;;;;;5101224;28;20452;-68
2023/07/04 12:55:46;;;;;;;;;;;;;;;;;;;;;
2023/07/04 12:58:40;;;;;;;4.60;1.63;;;18.80;99.90;;;;;;5074776;28;20400;-70
2023/07/04 13:01:18;;;;;;;3.80;1.87;;;18.80;99.90;;;;;;5070521;28;20764;-69
2023/07/04 13:03:45;;;;;;;2.60;1.50;;;18.50;99.90;;;;;;5077512;28;21022;-74
2023/07/04 13:06:48;;;;;;;2.50;1.33;;;18.50;99.90;;;;;;5078578;28;20933;-70
2023/07/04 13:09:19;;;;;;;2.40;1.30;;;19.20;99.90;;;;;;5080479;28;20413;-69
2023/07/04 13:11:45;;;;;;;3.37;1.27;;;20.10;99.90;;;;;;5073788;28;20401;-70
2023/07/04 13:14:11;;;;;;;5.50;2.10;;;20.80;99.90;;;;;;5086011;28;20504;-71
2023/07/04 13:16:38;;;;;;;3.63;1.40;;;21.50;99.90;;;;;;5092475;28;20475;-69
2023/07/04 13:19:04;;;;;;;6.30;1.40;;;22.10;99.90;;;;;;5067285;28;20295;-69
2023/07/04 13:21:38;;;;;;;4.07;1.13;;;22.80;99.90;;;;;;5089521;28;20507;-77
2023/07/04 13:24:12;;;;;;;2.17;1.47;;;22.70;99.90;;;;;;5076926;28;20247;-73
2023/07/04 13:26:41;;;;;;;4.13;1.20;;;22.80;99.90;;;;;;5075067;28;20408;-69
2023/07/04 13:29:59;;;;;;;4.57;1.27;;;23.00;99.90;;;;;;5074247;28;20742;-69
2023/07/04 13:32:52;;;;;;;3.10;1.27;;;23.00;99.90;;;;;;5058228;28;20505;-70
2023/07/04 13:35:25;;;;;;;4.70;1.23;;;22.60;99.90;;;;;;5093681;28;20411;-70
2023/07/04 13:41:06;;;;;;;3.37;1.00;;;22.20;99.90;;;;;;5092253;28;20514;-76
2023/07/04 13:43:32;;;;;;;2.83;1.40;;;22.30;99.90;;;;;;5087836;28;20501;-77
2023/07/04 13:45:58;;;;;;;3.43;1.30;;;21.90;99.90;;;;;;5073873;28;20408;-68
2023/07/04 13:48:27;;;;;;;1.80;1.27;;;21.80;99.90;;;;;;5075552;28;20843;-71
2023/07/04 13:50:56;;;;;;;4.47;1.30;;;21.50;99.90;;;;;;5054834;28;20277;-70
2023/07/04 13:53:26;;;;;;;3.47;1.30;;;21.40;99.90;;;;;;5077072;28;20509;-72
2023/07/04 13:55:53;;;;;;;4.03;1.70;;;21.40;99.90;;;;;;5062788;28;20444;-70
2023/07/04 14:01:48;;;;;;;3.67;1.67;;;21.10;99.90;;;;;;5073300;28;20419;-69
2023/07/04 14:04:14;;;;;;;3.63;1.77;;;21.40;99.90;;;;;;5083715;28;20444;-74
2023/07/04 14:06:40;;;;;;;2.23;1.40;;;21.30;99.90;;;;;;5073575;28;20412;-71
2023/07/04 14:09:43;;;;;;;7.13;2.00;;;21.20;99.90;;;;;;5072906;28;20166;-69
2023/07/04 14:12:09;;;;;;;2.33;1.40;;;21.00;99.90;;;;;;5054574;28;20221;-70
2023/07/04 14:17:58;;;;;;;7.00;1.80;;;20.30;99.90;;;;;;5080007;28;20387;-68
2023/07/04 14:20:25;;;;;;;3.07;1.60;;;19.80;99.90;;;;;;5075595;28;20428;-76
2023/07/04 14:22:52;;;;;;;4.30;2.20;;;19.40;99.90;;;;;;5077920;28;20427;-73
2023/07/04 14:25:21;;;;;;;2.47;1.53;;;18.80;99.90;;;;;;5093539;28;20434;-69
2023/07/04 14:31:50;;;;;;;4.60;1.60;;;19.00;99.90;;;;;;5030135;28;20476;-69
2023/07/04 14:43:57;;;;;;;3.10;1.97;;;18.40;99.90;;;;;;5072813;28;20415;-74
2023/07/04 14:46:23;;;;;;;6.03;1.80;;;19.00;99.90;;;;;;5077536;28;20448;-69
2023/07/04 14:48:52;;;;;;;3.03;1.40;;;19.20;99.90;;;;;;5090536;28;20474;-68
2023/07/04 14:54:24;;;;;;;6.33;2.73;;;19.80;99.90;;;;;;5010861;28;20947;-69
2023/07/04 14:56:50;;;;;;;2.43;1.30;;;20.00;99.90;;;;;;5070212;28;20518;-76
2023/07/04 14:59:25;;;;;;;4.90;1.90;;;19.90;99.90;;;;;;5072740;28;20499;-69
2023/07/04 15:01:54;;;;;;;6.80;2.23;;;20.20;99.90;;;;;;5081913;28;20184;-70
2023/07/04 15:04:46;;;;;;;6.10;1.97;;;20.40;99.90;;;;;;5077708;28;20473;-70
2023/07/04 15:07:12;;;;;;;4.50;1.83;;;20.50;99.90;;;;;;5050872;28;20420;-71
2023/07/04 15:13:10;;;;;;;5.13;1.50;;;20.40;99.90;;;;;;5092216;28;20450;-74
2023/07/04 15:15:29;;;;;;;3.97;1.30;;;20.40;99.90;;;;;;5087737;28;20512;-75
2023/07/04 15:18:03;;;;;;;3.10;1.67;;;20.70;99.90;;;;;;5079724;28;20855;-70
2023/07/04 15:20:50;;;;;;;8.60;2.80;;;20.30;99.90;;;;;;5090326;28;20643;-74